createdAt,value
2022-11-02T00:00:55.761Z,100467.42
2022-11-02T00:03:06.306Z,100460.55
2022-11-02T00:05:12.896Z,100456.64
2022-11-02T00:07:18.746Z,100460.31
2022-11-02T00:09:24.020Z,100457.61
2022-11-02T00:11:29.564Z,100453.64
2022-11-02T00:13:36.048Z,100450.08
2022-11-02T00:15:41.458Z,100452.49
2022-11-02T00:17:47.056Z,100455.97
2022-11-02T00:19:52.290Z,100460.11
2022-11-02T00:21:57.925Z,100461.38
2022-11-02T00:24:03.592Z,100463.63
2022-11-02T00:26:10.269Z,100460.86
2022-11-02T00:28:16.690Z,100463.2
2022-11-02T00:30:22.805Z,100465.86
2022-11-02T00:32:29.131Z,100465.04
2022-11-02T00:34:34.900Z,100469.34
2022-11-02T00:36:43.504Z,100474.24
2022-11-02T00:38:48.700Z,100469.36
2022-11-02T00:40:54.777Z,100468.3
2022-11-02T00:43:00.194Z,100467.95
2022-11-02T00:45:05.576Z,100467.64
2022-11-02T00:47:11.022Z,100471.11
2022-11-02T00:49:18.395Z,100472.09
2022-11-02T00:51:27.442Z,100468.84
2022-11-02T00:53:33.041Z,100464.38
2022-11-02T00:55:38.395Z,100459.84
2022-11-02T00:57:45.716Z,100460.06
2022-11-02T00:59:51.069Z,100462.22
2022-11-02T01:01:56.951Z,100461.88
2022-11-02T01:04:02.964Z,100463.05
2022-11-02T01:06:11.319Z,100462.97
2022-11-02T01:08:16.793Z,100464.7
2022-11-02T01:10:27.499Z,100470.48
2022-11-02T01:12:34.055Z,100463.9
2022-11-02T01:14:39.495Z,100461.89
2022-11-02T01:16:46.899Z,100456.27
2022-11-02T01:18:53.552Z,100461.42
2022-11-02T01:20:59.640Z,100457.77
2022-11-02T01:23:10.436Z,100461.73
2022-11-02T01:25:15.801Z,100455.2
2022-11-02T01:27:25.480Z,100454.86
2022-11-02T01:29:32.746Z,100457.02
2022-11-02T01:31:38.121Z,100454.37
2022-11-02T01:33:46.528Z,100453.55
2022-11-02T01:35:51.747Z,100448.3
2022-11-02T01:37:57.250Z,100450.13
2022-11-02T01:40:05.827Z,100455.92
2022-11-02T01:42:11.200Z,100453.86
2022-11-02T01:44:16.635Z,100450.63
2022-11-02T01:46:24.283Z,100454.45
2022-11-02T01:48:29.724Z,100452.13
2022-11-02T01:50:34.882Z,100450.78
2022-11-02T01:52:42.489Z,100456.7
2022-11-02T01:54:48.411Z,100459.84
2022-11-02T01:56:53.793Z,100464.8
2022-11-02T01:58:59.571Z,100464.11
2022-11-02T02:01:10.493Z,100462.28
2022-11-02T02:03:16.127Z,100463.22
2022-11-02T02:05:21.734Z,100462.2
2022-11-02T02:07:27.176Z,100469.33
2022-11-02T02:09:32.345Z,100470.41
2022-11-02T02:11:37.798Z,100468.58
2022-11-02T02:13:43.619Z,100472.56
2022-11-02T02:15:51.946Z,100469.76
2022-11-02T02:17:59.171Z,100465.94
2022-11-02T02:20:06.584Z,100470
2022-11-02T02:22:11.894Z,100467.34
2022-11-02T02:24:17.116Z,100461.42
2022-11-02T02:26:22.666Z,100462.09
2022-11-02T02:28:28.009Z,100457.62
2022-11-02T02:30:33.298Z,100456.88
2022-11-02T02:32:39.865Z,100455.8
2022-11-02T02:34:45.302Z,100454.64
2022-11-02T02:36:50.753Z,100454.14
2022-11-02T02:38:56.368Z,100456.7
2022-11-02T02:41:01.680Z,100454.09
2022-11-02T02:43:07.288Z,100454.41
2022-11-02T02:45:13.060Z,100453.34
2022-11-02T02:47:19.669Z,100452.58
2022-11-02T02:49:25.095Z,100452.51
2022-11-02T02:51:31.643Z,100450
2022-11-02T02:53:36.893Z,100447.27
2022-11-02T02:55:42.393Z,100452.16
2022-11-02T02:57:47.652Z,100459.41
2022-11-02T02:59:54.091Z,100453.05
2022-11-02T03:02:02.683Z,100455.77
2022-11-02T03:04:08.935Z,100465.3
2022-11-02T03:06:14.330Z,100471.34
2022-11-02T03:08:21.636Z,100474.98
2022-11-02T03:10:27.023Z,100477.45
2022-11-02T03:12:37.423Z,100482.48
2022-11-02T03:14:43.923Z,100482.08
2022-11-02T03:16:49.366Z,100487.78
2022-11-02T03:18:54.567Z,100488.92
2022-11-02T03:21:00.219Z,100485.56
2022-11-02T03:23:05.534Z,100487.38
2022-11-02T03:25:10.839Z,100484.22
2022-11-02T03:27:16.079Z,100486.38
2022-11-02T03:29:25.433Z,100485.14
2022-11-02T03:31:33.599Z,100482.6
2022-11-02T03:33:42.126Z,100483.13
2022-11-02T03:35:47.675Z,100482.84
2022-11-02T03:37:53.086Z,100483.09
2022-11-02T03:39:59.030Z,100480.16
2022-11-02T03:42:04.559Z,100477.4
2022-11-02T03:44:10.048Z,100483.89
2022-11-02T03:46:15.550Z,100491.28
2022-11-02T03:48:22.225Z,100490.75
2022-11-02T03:50:27.530Z,100488.25
2022-11-02T03:52:32.748Z,100485.02
2022-11-02T03:54:38.352Z,100488.9
2022-11-02T03:56:47.939Z,100488.16
2022-11-02T03:58:53.259Z,100488.38
2022-11-02T04:00:58.767Z,100490.95
2022-11-02T04:03:06.176Z,100494.48
2022-11-02T04:05:11.569Z,100501.51
2022-11-02T04:07:18.522Z,100504.06
2022-11-02T04:09:27.549Z,100504.47
2022-11-02T04:11:32.716Z,100504.81
2022-11-02T04:13:41.492Z,100505.69
2022-11-02T04:15:46.809Z,100505.03
2022-11-02T04:17:52.155Z,100501.88
2022-11-02T04:19:58.593Z,100509
2022-11-02T04:22:11.668Z,100508.26
2022-11-02T04:24:17.214Z,100508.63
2022-11-02T04:26:22.921Z,100507.75
2022-11-02T04:28:28.195Z,100504.36
2022-11-02T04:30:33.809Z,100499.86
2022-11-02T04:32:42.599Z,100504.91
2022-11-02T04:34:47.971Z,100510.55
2022-11-02T04:36:53.535Z,100505.37
2022-11-02T04:39:00.676Z,100502.03
2022-11-02T04:41:06.550Z,100501.47
2022-11-02T04:43:14.124Z,100502.55
2022-11-02T04:45:20.840Z,100507.95
2022-11-02T04:47:30.034Z,100502.78
2022-11-02T04:49:36.471Z,100501.45
2022-11-02T04:51:49.820Z,100501.61
2022-11-02T04:53:55.675Z,100502.66
2022-11-02T04:56:07.033Z,100503.77
2022-11-02T04:58:14.763Z,100504.27
2022-11-02T05:00:23.058Z,100503.25
2022-11-02T05:02:32.667Z,100503.42
2022-11-02T05:04:39.495Z,100504.25
2022-11-02T05:06:46.852Z,100508.47
2022-11-02T05:08:52.231Z,100511.02
2022-11-02T05:10:57.640Z,100512.92
2022-11-02T05:13:03.580Z,100518.7
2022-11-02T05:15:10.311Z,100520.9
2022-11-02T05:17:15.632Z,100527.58
2022-11-02T05:19:26.644Z,100528.58
2022-11-02T05:21:35.469Z,100533.41
2022-11-02T05:23:40.916Z,100530
2022-11-02T05:25:50.037Z,100525.26
2022-11-02T05:27:55.966Z,100525.16
2022-11-02T05:30:02.468Z,100527.55
2022-11-02T05:32:13.716Z,100529.66
2022-11-02T05:34:19.513Z,100532.27
2022-11-02T05:36:24.989Z,100536.41
2022-11-02T05:38:32.585Z,100535.44
2022-11-02T05:40:38.297Z,100537.13
2022-11-02T05:42:43.775Z,100537.7
2022-11-02T05:44:54.760Z,100543.04
2022-11-02T05:47:00.881Z,100546.82
2022-11-02T05:49:06.411Z,100547.41
2022-11-02T05:51:11.670Z,100551.45
2022-11-02T05:53:17.343Z,100553.39
2022-11-02T05:55:23.693Z,100557.18
2022-11-02T05:57:29.143Z,100555.86
2022-11-02T05:59:34.832Z,100556.26
2022-11-02T06:01:42.561Z,100556.83
2022-11-02T06:03:54.716Z,100561.88
2022-11-02T06:06:00.993Z,100565.03
2022-11-02T06:08:08.896Z,100561.6
2022-11-02T06:10:18.080Z,100565.77
2022-11-02T06:12:24.564Z,100561.09
2022-11-02T06:14:35.661Z,100564.85
2022-11-02T06:16:42.254Z,100562.73
2022-11-02T06:18:47.803Z,100564.79
2022-11-02T06:21:14.152Z,100570.42
2022-11-02T06:23:24.325Z,100574.52
2022-11-02T06:25:38.510Z,100572.35
2022-11-02T06:27:47.266Z,100576.79
2022-11-02T06:29:53.308Z,100577.89
2022-11-02T06:32:04.758Z,100578.88
2022-11-02T06:34:11.841Z,100582.71
2022-11-02T06:36:17.503Z,100584.01
2022-11-02T06:38:24.421Z,100584.34
2022-11-02T06:40:30.011Z,100586.4
2022-11-02T06:42:56.707Z,100587.73
2022-11-02T06:45:22.865Z,100586.16
2022-11-02T06:47:28.617Z,100586.52
2022-11-02T06:49:33.928Z,100588.69
2022-11-02T06:51:42.531Z,100593.3
2022-11-02T06:53:49.984Z,100590.75
2022-11-02T06:55:56.040Z,100594.83
2022-11-02T06:58:01.481Z,100593.25
2022-11-02T07:00:07.306Z,100591.44
2022-11-02T07:02:15.163Z,100596.34
2022-11-02T07:04:21.349Z,100599.28
2022-11-02T07:06:27.628Z,100605.01
2022-11-02T07:08:34.094Z,100609.29
2022-11-02T07:10:41.545Z,100604.84
2022-11-02T07:12:47.685Z,100604.8
2022-11-02T07:14:53.139Z,100608.2
2022-11-02T07:16:58.534Z,100610.17
2022-11-02T07:19:04.106Z,100610.44
2022-11-02T07:21:12.797Z,100616.19
2022-11-02T07:23:18.570Z,100620.67
2022-11-02T07:25:24.763Z,100614.68
2022-11-02T07:27:31.725Z,100611.84
2022-11-02T07:29:37.271Z,100613.53
2022-11-02T07:31:42.637Z,100612.55
2022-11-02T07:33:48.475Z,100616.89
2022-11-02T07:35:56.751Z,100614.16
2022-11-02T07:38:02.816Z,100617.84
2022-11-02T07:40:08.630Z,100615.55
2022-11-02T07:42:17.890Z,100620.04
2022-11-02T07:44:24.311Z,100619.77
2022-11-02T07:46:29.976Z,100616.42
2022-11-02T07:48:35.662Z,100617.77
2022-11-02T07:50:41.546Z,100610.02
2022-11-02T07:52:47.213Z,100609.91
2022-11-02T07:54:53.059Z,100611.95
2022-11-02T07:56:58.731Z,100609.63
2022-11-02T07:59:04.911Z,100605.63
2022-11-02T08:01:11.276Z,100609.75
2022-11-02T08:03:17.459Z,100606.6
2022-11-02T08:05:24.212Z,100610.47
2022-11-02T08:07:29.800Z,100609.55
2022-11-02T08:09:37.216Z,100612.2
2022-11-02T08:11:42.776Z,100610.2
2022-11-02T08:13:48.328Z,100609.06
2022-11-02T08:15:54.725Z,100610.48
2022-11-02T08:18:00.835Z,100608.13
2022-11-02T08:20:07.904Z,100606.69
2022-11-02T08:22:13.480Z,100607.64
2022-11-02T08:24:19.120Z,100604.48
2022-11-02T08:26:24.949Z,100606.33
2022-11-02T08:28:31.677Z,100607.02
2022-11-02T08:30:38.047Z,100605.44
2022-11-02T08:32:43.562Z,100603.94
2022-11-02T08:34:48.913Z,100600.97
2022-11-02T08:36:54.531Z,100598.34
2022-11-02T08:39:00.362Z,100597.98
2022-11-02T08:41:06.075Z,100596.58
2022-11-02T08:43:11.461Z,100593.53
2022-11-02T08:45:16.978Z,100594.76
2022-11-02T08:47:22.850Z,100598.27
2022-11-02T08:49:28.826Z,100598.75
2022-11-02T08:51:35.049Z,100601.95
2022-11-02T08:53:43.775Z,100594.89
2022-11-02T08:55:55.642Z,100594.33
2022-11-02T08:58:03.265Z,100599.49
2022-11-02T09:00:10.247Z,100594.31
2022-11-02T09:02:18.627Z,100595.16
2022-11-02T09:04:25.466Z,100592.53
2022-11-02T09:06:32.593Z,100586.67
2022-11-02T09:08:38.946Z,100583.45
2022-11-02T09:11:05.360Z,100576.34
2022-11-02T09:13:11.148Z,100577.02
2022-11-02T09:15:16.860Z,100575.89
2022-11-02T09:17:22.660Z,100569.64
2022-11-02T09:19:28.036Z,100564.84
2022-11-02T09:21:33.738Z,100562.7
2022-11-02T09:23:39.265Z,100564.48
2022-11-02T09:25:45.845Z,100561.17
2022-11-02T09:27:56.745Z,100562.61
2022-11-02T09:30:03.230Z,100561.8
2022-11-02T09:32:09.201Z,100564.9
2022-11-02T09:34:15.776Z,100563.1
2022-11-02T09:36:21.515Z,100564.75
2022-11-02T09:38:28.294Z,100566.55
2022-11-02T09:40:33.839Z,100569.77
2022-11-02T09:42:41.956Z,100570.2
2022-11-02T09:44:47.721Z,100579.9
2022-11-02T09:48:11.156Z,100574.95
2022-11-02T09:50:32.101Z,100576.06
2022-11-02T09:52:40.423Z,100575.99
2022-11-02T09:54:46.308Z,100572.5
2022-11-02T09:56:52.188Z,100572.34
2022-11-02T09:58:58.712Z,100574.39
2022-11-02T10:01:07.636Z,100570.34
2022-11-02T10:03:13.383Z,100569.47
2022-11-02T10:05:19.105Z,100571.45
2022-11-02T10:07:26.817Z,100571.3
2022-11-02T10:09:32.264Z,100568.44
2022-11-02T10:11:38.984Z,100572.81
2022-11-02T10:13:49.090Z,100572.7
2022-11-02T10:16:01.037Z,100571
2022-11-02T10:18:06.757Z,100572.83
2022-11-02T10:20:12.497Z,100571.8
2022-11-02T10:22:18.226Z,100566.02
2022-11-02T10:24:23.955Z,100564.41
2022-11-02T10:26:29.687Z,100563.59
2022-11-02T10:28:35.986Z,100563.63
2022-11-02T10:30:45.335Z,100563.67
2022-11-02T10:32:51.317Z,100561.56
2022-11-02T10:35:26.237Z,100559.35
2022-11-02T10:38:29.163Z,100564.95
2022-11-02T10:40:35.461Z,100560.06
2022-11-02T10:42:41.101Z,100561.66
2022-11-02T10:44:48.255Z,100562.49
2022-11-02T10:46:54.750Z,100560.58
2022-11-02T10:49:03.699Z,100558.7
2022-11-02T10:51:10.168Z,100562.55
2022-11-02T10:53:41.996Z,100565.71
2022-11-02T10:55:49.236Z,100564.45
2022-11-02T10:57:55.060Z,100562.34
2022-11-02T11:00:00.822Z,100565.63
2022-11-02T11:02:06.785Z,100565.92
2022-11-02T11:04:12.536Z,100567.88
2022-11-02T11:06:18.144Z,100566.27
2022-11-02T11:08:23.568Z,100569.73
2022-11-02T11:10:29.157Z,100564.47
2022-11-02T11:12:34.815Z,100568.77
2022-11-02T11:21:45.618Z,100566.59
2022-11-02T11:23:50.952Z,100560.61
2022-11-02T11:25:57.064Z,100559.17
2022-11-02T11:28:03.441Z,100554.81
2022-11-02T11:30:09.906Z,100560.04
2022-11-02T11:32:15.142Z,100555.97
2022-11-02T11:34:20.814Z,100556.1
2022-11-02T11:36:27.555Z,100555.08
2022-11-02T11:38:34.152Z,100546.22
2022-11-02T11:40:39.806Z,100541.94
2022-11-02T11:42:45.385Z,100545
2022-11-02T11:44:50.873Z,100540.59
2022-11-02T11:46:59.366Z,100541.44
2022-11-02T11:49:04.889Z,100544.58
2022-11-02T11:51:10.285Z,100543.36
2022-11-02T11:53:15.683Z,100550.44
2022-11-02T11:55:21.617Z,100551.25
2022-11-02T11:57:27.214Z,100548.5
2022-11-02T11:59:33.100Z,100546.83
2022-11-02T12:01:38.647Z,100553.92
2022-11-02T12:03:45.023Z,100541.88
2022-11-02T12:05:50.531Z,100545.84
2022-11-02T12:07:57.780Z,100541.38
2022-11-02T12:10:03.501Z,100533.8
2022-11-02T12:12:09.434Z,100536.77
2022-11-02T12:14:15.221Z,100540.16
2022-11-02T12:16:20.718Z,100537.13
2022-11-02T12:18:30.184Z,100535.34
2022-11-02T12:20:36.328Z,100541.12
2022-11-02T12:22:42.050Z,100542.04
2022-11-02T12:24:47.371Z,100543.67
2022-11-02T12:26:53.131Z,100541.53
2022-11-02T12:28:58.628Z,100541.21
2022-11-02T12:31:04.112Z,100534.98
2022-11-02T12:33:10.714Z,100531.41
2022-11-02T12:35:30.649Z,100530.11
2022-11-02T12:37:43.096Z,100530.09
2022-11-02T12:39:49.043Z,100528.56
2022-11-02T12:41:54.550Z,100527
2022-11-02T12:44:00.517Z,100523.75
2022-11-02T12:46:07.015Z,100521.99
2022-11-02T12:48:12.180Z,100518.66
2022-11-02T12:50:17.740Z,100520.91
2022-11-02T12:52:23.530Z,100526.51
2022-11-02T12:54:29.219Z,100523.97
2022-11-02T12:56:34.591Z,100523.63
2022-11-02T12:58:40.023Z,100522.73
2022-11-02T13:00:45.535Z,100522.19
2022-11-02T13:02:51.409Z,100517.81
2022-11-02T13:04:57.864Z,100518.24
2022-11-02T13:07:04.011Z,100513.34
2022-11-02T13:09:10.050Z,100514.64
2022-11-02T13:11:16.673Z,100517.91
2022-11-02T13:13:22.788Z,100520.34
2022-11-02T13:15:30.367Z,100516.27
2022-11-02T13:17:36.195Z,100521.52
2022-11-02T13:19:41.565Z,100520.98
2022-11-02T13:21:47.101Z,100521.94
2022-11-02T13:23:53.392Z,100520.88
2022-11-02T13:25:58.937Z,100521.52
2022-11-02T13:28:07.734Z,100519.92
2022-11-02T13:30:14.508Z,100522.81
2022-11-02T13:32:19.976Z,100521.64
2022-11-02T13:34:25.334Z,100519.84
2022-11-02T13:36:30.788Z,100525.23
2022-11-02T13:38:36.314Z,100524.52
2022-11-02T13:40:42.800Z,100523.55
2022-11-02T13:42:48.289Z,100519.67
2022-11-02T13:44:53.717Z,100523.34
2022-11-02T13:47:00.293Z,100522.69
2022-11-02T13:49:06.184Z,100524.48
2022-11-02T13:51:11.636Z,100532.68
2022-11-02T13:53:17.246Z,100531.11
2022-11-02T13:55:22.820Z,100528.28
2022-11-02T13:57:28.574Z,100528.22
2022-11-02T13:59:35.897Z,100529.9
2022-11-02T14:01:48.199Z,100533.91
2022-11-02T14:04:02.080Z,100534.78
2022-11-02T14:06:08.860Z,100531.77
2022-11-02T14:08:14.494Z,100533.78
2022-11-02T14:10:20.187Z,100527.61
2022-11-02T14:12:25.624Z,100531.94
2022-11-02T14:14:31.244Z,100534.34
2022-11-02T14:16:36.772Z,100532.92
2022-11-02T14:18:42.752Z,100529.3
2022-11-02T14:20:48.525Z,100533.46
2022-11-02T14:22:55.334Z,100533.05
2022-11-02T14:25:01.102Z,100530.3
2022-11-02T14:27:07.112Z,100532.93
2022-11-02T14:29:12.703Z,100534.21
2022-11-02T14:31:18.141Z,100528.3
2022-11-02T14:33:23.840Z,100531.09
2022-11-02T14:35:29.416Z,100529.29
2022-11-02T14:37:34.903Z,100529.56
2022-11-02T14:39:40.253Z,100526.58
2022-11-02T14:41:46.092Z,100529.7
2022-11-02T14:43:52.707Z,100532.09
2022-11-02T14:45:58.124Z,100535.38
2022-11-02T14:48:09.864Z,100537.75
2022-11-02T14:50:15.485Z,100541.71
2022-11-02T14:52:21.431Z,100540.67
2022-11-02T14:54:27.913Z,100543.67
2022-11-02T14:56:33.713Z,100549.42
2022-11-02T14:58:39.291Z,100552.28
2022-11-02T15:00:46.670Z,100555.81
2022-11-02T15:02:52.978Z,100553.57
2022-11-02T15:04:58.995Z,100554.58
2022-11-02T15:07:05.761Z,100557.11
2022-11-02T15:09:11.832Z,100557.45
2022-11-02T15:11:17.488Z,100556.89
2022-11-02T15:13:23.472Z,100556.83
2022-11-02T15:15:29.180Z,100560.34
2022-11-02T15:17:35.486Z,100564.97
2022-11-02T15:19:41.390Z,100563.86
2022-11-02T15:21:47.887Z,100567.11
2022-11-02T15:23:53.648Z,100565.97
2022-11-02T15:25:59.904Z,100569.53
2022-11-02T15:28:07.256Z,100570.7
2022-11-02T15:30:15.102Z,100578.38
2022-11-02T15:32:24.487Z,100579.06
2022-11-02T15:34:30.695Z,100580.86
2022-11-02T15:36:36.785Z,100583.5
2022-11-02T15:38:42.748Z,100586.58
2022-11-02T15:40:49.083Z,100590.27
2022-11-02T15:42:55.532Z,100592.3
2022-11-02T15:45:26.612Z,100597.43
2022-11-02T15:48:01.660Z,100599.14
2022-11-02T15:50:09.114Z,100600.45
2022-11-02T15:52:15.263Z,100603.59
2022-11-02T15:54:21.914Z,100601.84
2022-11-02T15:56:28.219Z,100611.52
2022-11-02T15:58:34.542Z,100612.35
2022-11-02T16:00:40.949Z,100617.23
2022-11-02T16:02:47.936Z,100622.21
2022-11-02T16:04:54.331Z,100626.08
2022-11-02T16:07:00.677Z,100630.92
2022-11-02T16:09:08.646Z,100627.23
2022-11-02T16:11:14.893Z,100629.78
2022-11-02T16:13:20.597Z,100628.95
2022-11-02T16:15:26.831Z,100626.42
2022-11-02T16:17:32.916Z,100622.7
2022-11-02T16:19:39.817Z,100623.36
2022-11-02T16:21:46.253Z,100622.08
2022-11-02T16:23:53.003Z,100620.52
2022-11-02T16:25:59.783Z,100622.44
2022-11-02T16:28:06.440Z,100625.45
2022-11-02T16:30:12.774Z,100626.03
2022-11-02T16:32:19.326Z,100628.95
2022-11-02T16:34:25.935Z,100635.4
2022-11-02T16:36:31.524Z,100637.01
2022-11-02T16:38:38.419Z,100639.92
2022-11-02T16:40:45.432Z,100641.33
2022-11-02T16:42:53.334Z,100639.59
2022-11-02T16:44:59.246Z,100644.11
2022-11-02T16:47:06.560Z,100643.8
2022-11-02T16:49:12.648Z,100648.57
2022-11-02T16:51:19.624Z,100649.11
2022-11-02T16:53:26.163Z,100653.47
2022-11-02T16:55:31.918Z,100653.08
2022-11-02T16:57:38.377Z,100653.78
2022-11-02T16:59:46.083Z,100657.14
2022-11-02T17:01:52.257Z,100657.36
2022-11-02T17:03:59.249Z,100662.19
2022-11-02T17:06:13.319Z,100665.02
2022-11-02T17:08:20.151Z,100665.94
2022-11-02T17:10:27.281Z,100667.38
2022-11-02T17:12:35.211Z,100669.48
2022-11-02T17:14:44.472Z,100669.05
2022-11-02T17:16:52.951Z,100666.48
2022-11-02T17:19:02.332Z,100670.14
2022-11-02T17:21:08.764Z,100670
2022-11-02T17:23:17.293Z,100671.98
2022-11-02T17:25:25.830Z,100669.48
2022-11-02T17:27:43.239Z,100670.2
2022-11-02T17:29:52.028Z,100671.59
2022-11-02T17:32:00.490Z,100665.59
2022-11-02T17:34:07.284Z,100665.86
2022-11-02T17:36:13.727Z,100658.95
2022-11-02T17:38:20.292Z,100661.3
2022-11-02T17:40:26.549Z,100661.42
2022-11-02T17:42:34.591Z,100661.16
2022-11-02T17:44:43.663Z,100661.14
2022-11-02T17:46:50.258Z,100664.02
2022-11-02T17:48:58.371Z,100666.56
2022-11-02T17:51:09.550Z,100666.3
2022-11-02T17:53:17.301Z,100665.64
2022-11-02T17:55:27.491Z,100662.96
2022-11-02T17:57:34.280Z,100668.23
2022-11-02T17:59:50.393Z,100670.25
2022-11-02T18:01:59.002Z,100669.85
2022-11-02T18:04:07.295Z,100668.98
2022-11-02T18:06:16.049Z,100667.05
2022-11-02T18:08:23.148Z,100669.13
2022-11-02T18:10:31.079Z,100665.8
2022-11-02T18:12:39.870Z,100667.16
2022-11-02T18:14:49.354Z,100666.59
2022-11-02T18:16:58.153Z,100667.05
2022-11-02T18:19:07.061Z,100669.47
2022-11-02T18:21:22.705Z,100668.03
2022-11-02T18:23:31.169Z,100671.06
2022-11-02T18:25:40.202Z,100674.52
2022-11-02T18:27:48.053Z,100671.27
2022-11-02T18:30:04.818Z,100670.84
2022-11-02T18:32:12.796Z,100669.81
2022-11-02T18:34:21.125Z,100668.16
2022-11-02T18:36:30.698Z,100674.59
2022-11-02T18:38:39.605Z,100669.44
2022-11-02T18:40:48.742Z,100672.27
2022-11-02T18:43:02.236Z,100672.4
2022-11-02T18:45:13.788Z,100670.59
2022-11-02T18:47:27.258Z,100672.19
2022-11-02T18:49:36.678Z,100674.37
2022-11-02T18:51:44.311Z,100673.06
2022-11-02T18:53:54.106Z,100675.37
2022-11-02T18:56:02.861Z,100674.9
2022-11-02T18:58:15.395Z,100674.2
2022-11-02T19:00:23.158Z,100674.41
2022-11-02T19:02:31.790Z,100674.88
2022-11-02T19:04:40.029Z,100672.37
2022-11-02T19:06:56.215Z,100670.37
2022-11-02T19:09:04.790Z,100674.07
2022-11-02T19:11:17.492Z,100671.03
2022-11-02T19:13:25.050Z,100664.86
2022-11-02T19:15:45.918Z,100670.91
2022-11-02T19:17:53.911Z,100670.14
2022-11-02T19:20:06.096Z,100671.47
2022-11-02T19:22:15.139Z,100673.02
2022-11-02T19:24:23.555Z,100673.45
2022-11-02T19:26:32.914Z,100672.63
2022-11-02T19:28:47.048Z,100676.5
2022-11-02T19:31:00.580Z,100674.55
2022-11-02T19:33:09.978Z,100677.9
2022-11-02T19:35:18.755Z,100682.86
2022-11-02T19:37:34.754Z,100689.98
2022-11-02T19:39:45.483Z,100697.13
2022-11-02T19:41:54.146Z,100704
2022-11-02T19:44:08.465Z,100706.75
2022-11-02T19:46:17.289Z,100710.05
2022-11-02T19:48:33.928Z,100710.98
2022-11-02T19:50:50.739Z,100709.81
2022-11-02T19:53:02.895Z,100704.45
2022-11-02T19:55:17.824Z,100706.71
2022-11-02T19:57:35.260Z,100704.7
2022-11-02T19:59:44.395Z,100699.86
2022-11-02T20:01:53.492Z,100700.69
2022-11-02T20:04:06.657Z,100696.55
2022-11-02T20:06:25.588Z,100696.27
2022-11-02T20:08:53.796Z,100700.35
2022-11-02T20:11:05.463Z,100698.56
2022-11-02T20:13:13.919Z,100701.82
2022-11-02T20:15:25.366Z,100703.84
2022-11-02T20:18:05.830Z,100704.95
2022-11-02T20:20:28.674Z,100703.54
2022-11-02T20:22:38.819Z,100701.7
2022-11-02T20:24:47.350Z,100707.43
2022-11-02T20:26:57.545Z,100709.98
2022-11-02T20:29:05.194Z,100708.09
2022-11-02T20:31:24.965Z,100715.2
2022-11-02T20:33:35.590Z,100716.45
2022-11-02T20:35:46.159Z,100714.29
2022-11-02T20:37:55.723Z,100711.72
2022-11-02T20:40:05.221Z,100702.86
2022-11-02T20:42:14.033Z,100704.52
2022-11-02T20:44:24.190Z,100711.48
2022-11-02T20:46:53.218Z,100717.61
2022-11-02T20:52:06.905Z,100715.18
2022-11-02T20:54:14.978Z,100713.23
2022-11-02T20:56:24.590Z,100708.73
2022-11-02T20:58:32.782Z,100713.52
2022-11-02T21:00:41.964Z,100715.12
2022-11-02T21:02:51.108Z,100716.31
2022-11-02T21:04:57.121Z,100714.16
2022-11-02T21:07:05.449Z,100713.57
2022-11-02T21:09:13.925Z,100716.17
2022-11-02T21:11:20.676Z,100716.35
2022-11-02T21:13:29.164Z,100719.77
2022-11-02T21:15:34.984Z,100724.13
2022-11-02T21:17:40.481Z,100719.77
2022-11-02T21:19:47.390Z,100725.77
2022-11-02T21:22:06.875Z,100729.63
2022-11-02T21:24:13.165Z,100731.55
2022-11-02T21:26:19.515Z,100734.02
2022-11-02T21:28:27.015Z,100738.54
2022-11-02T21:30:33.517Z,100738.37
2022-11-02T21:32:43.166Z,100739.23
2022-11-02T21:34:49.640Z,100745.95
2022-11-02T21:36:55.574Z,100742.78
2022-11-02T21:39:01.834Z,100744.58
2022-11-02T21:41:07.808Z,100749.11
2022-11-02T21:43:13.347Z,100748.17
2022-11-02T21:45:22.715Z,100742.59
2022-11-02T21:47:30.733Z,100738.41
2022-11-02T21:49:36.876Z,100737.43
2022-11-02T21:51:42.524Z,100736.55
2022-11-02T21:53:48.382Z,100738.16
2022-11-02T21:55:53.750Z,100741.13
2022-11-02T21:57:59.821Z,100738.14
2022-11-02T22:00:06.213Z,100732.47
2022-11-02T22:02:12.364Z,100740.59
2022-11-02T22:04:18.871Z,100753.04
2022-11-02T22:06:31.656Z,100747.91
2022-11-02T22:08:37.944Z,100742.95
2022-11-02T22:10:43.438Z,100745.25
2022-11-02T22:12:48.914Z,100744.38
2022-11-02T22:14:54.900Z,100742.34
2022-11-02T22:17:00.447Z,100744.92
2022-11-02T22:19:20.158Z,100743.91
2022-11-02T22:21:25.509Z,100746.48
2022-11-02T22:23:32.191Z,100741.02
2022-11-02T22:25:37.626Z,100738
2022-11-02T22:27:42.904Z,100742.02
2022-11-02T22:29:48.707Z,100740.76
2022-11-02T22:31:54.166Z,100740.05
2022-11-02T22:33:59.709Z,100746.79
2022-11-02T22:36:05.120Z,100745.03
2022-11-02T22:38:10.500Z,100750.81
2022-11-02T22:40:16.800Z,100751.5
2022-11-02T22:42:22.243Z,100754.52
2022-11-02T22:44:27.593Z,100752.43
2022-11-02T22:46:32.681Z,100756.55
2022-11-02T22:48:38.255Z,100759.88
2022-11-02T22:50:43.715Z,100756.31
2022-11-02T22:52:49.032Z,100757.59
2022-11-02T22:54:54.311Z,100766.02
2022-11-02T22:56:59.716Z,100765.79
2022-11-02T22:59:05.014Z,100766.45
2022-11-02T23:01:10.714Z,100770.46
2022-11-02T23:03:25.711Z,100771.12
2022-11-02T23:05:32.036Z,100772.98
2022-11-02T23:07:38.955Z,100775.3
2022-11-02T23:09:44.533Z,100767.78
2022-11-02T23:11:49.889Z,100766.07
2022-11-02T23:13:55.330Z,100773.05
2022-11-02T23:16:00.922Z,100767.41
2022-11-02T23:18:06.107Z,100768.14
2022-11-02T23:20:11.639Z,100774.1
2022-11-02T23:22:17.027Z,100780.33
2022-11-02T23:24:22.278Z,100778.34
2022-11-02T23:26:27.410Z,100775.91
2022-11-02T23:28:33.067Z,100782.03
2022-11-02T23:30:38.421Z,100776.88
2022-11-02T23:32:43.782Z,100780.3
2022-11-02T23:34:48.991Z,100782.89
2022-11-02T23:36:54.166Z,100784.61
2022-11-02T23:38:59.445Z,100782.64
2022-11-02T23:41:04.629Z,100782.97
2022-11-02T23:43:11.908Z,100787.75
2022-11-02T23:45:17.447Z,100788.39
2022-11-02T23:47:22.980Z,100784.66
2022-11-02T23:49:28.450Z,100786.22
2022-11-02T23:51:34.120Z,100782.36
2022-11-02T23:53:39.407Z,100791.03
2022-11-02T23:55:44.461Z,100788.77
2022-11-02T23:57:49.509Z,100788.61
2022-11-02T23:59:54.752Z,100790.28
